sensor_id;sensor_type;location;lat;lon;timestamp;P1;durP1;ratioP1;P2;durP2;ratioP2
69386;SDS011;56575;48.942;8.404;2023-04-24T00:00:34;1.37;;;0.73;;
69386;SDS011;56575;48.942;8.404;2023-04-24T00:02:59;1.10;;;0.50;;
69386;SDS011;56575;48.942;8.404;2023-04-24T00:05:24;2.22;;;0.90;;
69386;SDS011;56575;48.942;8.404;2023-04-24T00:07:50;1.63;;;0.40;;
69386;SDS011;56575;48.942;8.404;2023-04-24T00:10:18;1.83;;;0.60;;
69386;SDS011;56575;48.942;8.404;2023-04-24T00:12:44;0.97;;;0.40;;
69386;SDS011;56575;48.942;8.404;2023-04-24T00:15:09;1.57;;;0.40;;
69386;SDS011;56575;48.942;8.404;2023-04-24T00:17:35;2.30;;;0.43;;
69386;SDS011;56575;48.942;8.404;2023-04-24T00:20:00;1.65;;;0.40;;
69386;SDS011;56575;48.942;8.404;2023-04-24T00:22:29;0.90;;;0.40;;
69386;SDS011;56575;48.942;8.404;2023-04-24T00:24:55;1.13;;;0.40;;
69386;SDS011;56575;48.942;8.404;2023-04-24T00:27:21;1.65;;;0.50;;
69386;SDS011;56575;48.942;8.404;2023-04-24T00:29:47;3.50;;;0.50;;
69386;SDS011;56575;48.942;8.404;2023-04-24T00:32:13;1.43;;;0.40;;
69386;SDS011;56575;48.942;8.404;2023-04-24T00:34:38;2.08;;;0.50;;
69386;SDS011;56575;48.942;8.404;2023-04-24T00:37:04;1.57;;;0.47;;
69386;SDS011;56575;48.942;8.404;2023-04-24T00:39:30;3.03;;;0.50;;
69386;SDS011;56575;48.942;8.404;2023-04-24T00:41:55;2.33;;;0.50;;
69386;SDS011;56575;48.942;8.404;2023-04-24T00:44:21;0.80;;;0.40;;
69386;SDS011;56575;48.942;8.404;2023-04-24T00:46:47;1.23;;;0.53;;
69386;SDS011;56575;48.942;8.404;2023-04-24T00:49:17;2.15;;;0.32;;
69386;SDS011;56575;48.942;8.404;2023-04-24T00:51:43;1.95;;;0.40;;
69386;SDS011;56575;48.942;8.404;2023-04-24T00:54:10;1.98;;;0.40;;
69386;SDS011;56575;48.942;8.404;2023-04-24T00:56:38;1.30;;;0.40;;
69386;SDS011;56575;48.942;8.404;2023-04-24T00:59:05;2.00;;;0.50;;
69386;SDS011;56575;48.942;8.404;2023-04-24T01:01:31;1.98;;;0.50;;
69386;SDS011;56575;48.942;8.404;2023-04-24T01:03:57;2.17;;;0.47;;
69386;SDS011;56575;48.942;8.404;2023-04-24T01:06:23;2.67;;;0.50;;
69386;SDS011;56575;48.942;8.404;2023-04-24T01:08:52;1.48;;;0.50;;
69386;SDS011;56575;48.942;8.404;2023-04-24T01:11:17;3.15;;;0.80;;
69386;SDS011;56575;48.942;8.404;2023-04-24T01:13:43;0.93;;;0.40;;
69386;SDS011;56575;48.942;8.404;2023-04-24T01:16:08;1.10;;;0.47;;
69386;SDS011;56575;48.942;8.404;2023-04-24T01:18:34;1.33;;;0.40;;
69386;SDS011;56575;48.942;8.404;2023-04-24T01:20:59;1.33;;;0.60;;
69386;SDS011;56575;48.942;8.404;2023-04-24T01:23:28;2.47;;;1.10;;
69386;SDS011;56575;48.942;8.404;2023-04-24T01:25:54;2.10;;;0.87;;
69386;SDS011;56575;48.942;8.404;2023-04-24T01:28:20;0.90;;;0.50;;
69386;SDS011;56575;48.942;8.404;2023-04-24T01:30:46;3.25;;;0.50;;
69386;SDS011;56575;48.942;8.404;2023-04-24T01:33:11;2.13;;;0.70;;
69386;SDS011;56575;48.942;8.404;2023-04-24T01:35:38;1.97;;;0.60;;
69386;SDS011;56575;48.942;8.404;2023-04-24T01:38:03;1.25;;;0.50;;
69386;SDS011;56575;48.942;8.404;2023-04-24T01:40:30;4.88;;;0.82;;
69386;SDS011;56575;48.942;8.404;2023-04-24T01:42:56;2.83;;;0.60;;
69386;SDS011;56575;48.942;8.404;2023-04-24T01:45:23;2.60;;;0.60;;
69386;SDS011;56575;48.942;8.404;2023-04-24T01:47:48;1.70;;;0.50;;
69386;SDS011;56575;48.942;8.404;2023-04-24T01:50:14;3.08;;;0.85;;
69386;SDS011;56575;48.942;8.404;2023-04-24T01:52:40;1.30;;;0.57;;
69386;SDS011;56575;48.942;8.404;2023-04-24T01:55:06;1.13;;;0.50;;
69386;SDS011;56575;48.942;8.404;2023-04-24T01:57:32;2.83;;;0.60;;
69386;SDS011;56575;48.942;8.404;2023-04-24T01:59:58;1.15;;;0.50;;
69386;SDS011;56575;48.942;8.404;2023-04-24T02:02:23;2.77;;;0.63;;
69386;SDS011;56575;48.942;8.404;2023-04-24T02:04:55;2.27;;;0.73;;
69386;SDS011;56575;48.942;8.404;2023-04-24T02:07:21;2.28;;;0.50;;
69386;SDS011;56575;48.942;8.404;2023-04-24T02:09:47;2.25;;;0.70;;
69386;SDS011;56575;48.942;8.404;2023-04-24T02:12:13;1.10;;;0.40;;
69386;SDS011;56575;48.942;8.404;2023-04-24T02:14:39;2.63;;;0.45;;
69386;SDS011;56575;48.942;8.404;2023-04-24T02:17:04;0.90;;;0.50;;
69386;SDS011;56575;48.942;8.404;2023-04-24T02:19:30;2.17;;;0.60;;
69386;SDS011;56575;48.942;8.404;2023-04-24T02:21:55;2.20;;;0.55;;
69386;SDS011;56575;48.942;8.404;2023-04-24T02:24:21;2.03;;;0.73;;
69386;SDS011;56575;48.942;8.404;2023-04-24T02:26:46;2.10;;;0.60;;
69386;SDS011;56575;48.942;8.404;2023-04-24T02:29:11;1.67;;;0.60;;
69386;SDS011;56575;48.942;8.404;2023-04-24T02:31:37;1.63;;;0.40;;
69386;SDS011;56575;48.942;8.404;2023-04-24T02:34:02;3.03;;;0.83;;
69386;SDS011;56575;48.942;8.404;2023-04-24T02:36:27;0.80;;;0.50;;
69386;SDS011;56575;48.942;8.404;2023-04-24T02:38:53;1.80;;;0.40;;
69386;SDS011;56575;48.942;8.404;2023-04-24T02:41:18;2.13;;;0.50;;
69386;SDS011;56575;48.942;8.404;2023-04-24T02:43:44;2.25;;;0.60;;
69386;SDS011;56575;48.942;8.404;2023-04-24T02:46:10;1.70;;;0.50;;
69386;SDS011;56575;48.942;8.404;2023-04-24T02:48:36;1.50;;;0.60;;
69386;SDS011;56575;48.942;8.404;2023-04-24T02:51:02;2.10;;;0.50;;
69386;SDS011;56575;48.942;8.404;2023-04-24T02:53:28;3.08;;;0.47;;
69386;SDS011;56575;48.942;8.404;2023-04-24T02:55:55;3.17;;;0.60;;
69386;SDS011;56575;48.942;8.404;2023-04-24T02:58:21;1.57;;;0.50;;
69386;SDS011;56575;48.942;8.404;2023-04-24T03:00:46;2.20;;;0.60;;
69386;SDS011;56575;48.942;8.404;2023-04-24T03:03:12;1.37;;;0.50;;
69386;SDS011;56575;48.942;8.404;2023-04-24T03:05:38;2.78;;;0.73;;
69386;SDS011;56575;48.942;8.404;2023-04-24T03:08:03;2.10;;;0.73;;
69386;SDS011;56575;48.942;8.404;2023-04-24T03:10:29;1.57;;;0.60;;
69386;SDS011;56575;48.942;8.404;2023-04-24T03:12:54;1.33;;;0.63;;
69386;SDS011;56575;48.942;8.404;2023-04-24T03:15:20;1.70;;;0.63;;
69386;SDS011;56575;48.942;8.404;2023-04-24T03:17:45;2.07;;;0.60;;
69386;SDS011;56575;48.942;8.404;2023-04-24T03:20:10;1.90;;;0.73;;
69386;SDS011;56575;48.942;8.404;2023-04-24T03:22:36;2.83;;;0.88;;
69386;SDS011;56575;48.942;8.404;2023-04-24T03:25:01;2.77;;;0.80;;
69386;SDS011;56575;48.942;8.404;2023-04-24T03:27:27;2.33;;;0.70;;
69386;SDS011;56575;48.942;8.404;2023-04-24T03:29:52;1.75;;;0.77;;
69386;SDS011;56575;48.942;8.404;2023-04-24T03:32:20;2.53;;;0.83;;
69386;SDS011;56575;48.942;8.404;2023-04-24T03:34:45;4.07;;;1.00;;
69386;SDS011;56575;48.942;8.404;2023-04-24T03:37:10;2.30;;;0.83;;
69386;SDS011;56575;48.942;8.404;2023-04-24T03:39:36;2.63;;;1.00;;
69386;SDS011;56575;48.942;8.404;2023-04-24T03:42:01;1.97;;;0.97;;
69386;SDS011;56575;48.942;8.404;2023-04-24T03:44:27;4.68;;;1.17;;
69386;SDS011;56575;48.942;8.404;2023-04-24T03:46:52;4.03;;;0.90;;
69386;SDS011;56575;48.942;8.404;2023-04-24T03:49:18;2.13;;;0.97;;
69386;SDS011;56575;48.942;8.404;2023-04-24T03:51:43;4.35;;;1.20;;
69386;SDS011;56575;48.942;8.404;2023-04-24T03:54:08;3.13;;;1.30;;
69386;SDS011;56575;48.942;8.404;2023-04-24T03:56:34;2.63;;;1.00;;
69386;SDS011;56575;48.942;8.404;2023-04-24T03:58:59;2.33;;;1.13;;
69386;SDS011;56575;48.942;8.404;2023-04-24T04:01:25;3.20;;;1.20;;
69386;SDS011;56575;48.942;8.404;2023-04-24T04:03:50;2.10;;;1.03;;
69386;SDS011;56575;48.942;8.404;2023-04-24T04:06:16;3.17;;;1.20;;
69386;SDS011;56575;48.942;8.404;2023-04-24T04:08:41;2.20;;;1.00;;
69386;SDS011;56575;48.942;8.404;2023-04-24T04:11:06;3.67;;;1.07;;
69386;SDS011;56575;48.942;8.404;2023-04-24T04:13:32;1.90;;;0.87;;
69386;SDS011;56575;48.942;8.404;2023-04-24T04:15:57;2.27;;;1.00;;
69386;SDS011;56575;48.942;8.404;2023-04-24T04:18:22;2.37;;;1.30;;
69386;SDS011;56575;48.942;8.404;2023-04-24T04:20:48;1.73;;;1.00;;
69386;SDS011;56575;48.942;8.404;2023-04-24T04:23:13;1.80;;;1.03;;
69386;SDS011;56575;48.942;8.404;2023-04-24T04:25:39;4.27;;;1.40;;
69386;SDS011;56575;48.942;8.404;2023-04-24T04:28:04;1.70;;;1.20;;
69386;SDS011;56575;48.942;8.404;2023-04-24T04:30:31;2.58;;;1.27;;
69386;SDS011;56575;48.942;8.404;2023-04-24T04:32:57;3.65;;;1.52;;
69386;SDS011;56575;48.942;8.404;2023-04-24T04:35:22;3.40;;;1.60;;
69386;SDS011;56575;48.942;8.404;2023-04-24T04:37:48;2.90;;;1.43;;
69386;SDS011;56575;48.942;8.404;2023-04-24T04:40:13;2.37;;;1.37;;
69386;SDS011;56575;48.942;8.404;2023-04-24T04:42:38;3.23;;;1.50;;
69386;SDS011;56575;48.942;8.404;2023-04-24T04:45:06;3.72;;;1.52;;
69386;SDS011;56575;48.942;8.404;2023-04-24T04:47:33;2.97;;;1.43;;
69386;SDS011;56575;48.942;8.404;2023-04-24T04:49:59;7.70;;;1.90;;
69386;SDS011;56575;48.942;8.404;2023-04-24T04:52:25;4.10;;;1.50;;
69386;SDS011;56575;48.942;8.404;2023-04-24T04:54:51;2.92;;;1.52;;
69386;SDS011;56575;48.942;8.404;2023-04-24T04:57:17;3.50;;;1.73;;
69386;SDS011;56575;48.942;8.404;2023-04-24T04:59:42;3.97;;;1.57;;
69386;SDS011;56575;48.942;8.404;2023-04-24T05:02:08;4.13;;;2.03;;
69386;SDS011;56575;48.942;8.404;2023-04-24T05:04:33;3.65;;;1.88;;
69386;SDS011;56575;48.942;8.404;2023-04-24T05:06:59;3.33;;;1.70;;
69386;SDS011;56575;48.942;8.404;2023-04-24T05:09:24;3.17;;;1.83;;
69386;SDS011;56575;48.942;8.404;2023-04-24T05:11:52;4.93;;;2.10;;
69386;SDS011;56575;48.942;8.404;2023-04-24T05:14:17;3.65;;;1.83;;
69386;SDS011;56575;48.942;8.404;2023-04-24T05:16:43;5.43;;;1.92;;
69386;SDS011;56575;48.942;8.404;2023-04-24T05:19:09;3.73;;;2.10;;
69386;SDS011;56575;48.942;8.404;2023-04-24T05:21:36;3.03;;;1.85;;
69386;SDS011;56575;48.942;8.404;2023-04-24T05:24:02;4.30;;;1.90;;
69386;SDS011;56575;48.942;8.404;2023-04-24T05:26:27;3.42;;;1.83;;
69386;SDS011;56575;48.942;8.404;2023-04-24T05:28:53;5.50;;;2.13;;
69386;SDS011;56575;48.942;8.404;2023-04-24T05:31:18;3.50;;;1.70;;
69386;SDS011;56575;48.942;8.404;2023-04-24T05:33:43;4.20;;;1.93;;
69386;SDS011;56575;48.942;8.404;2023-04-24T05:36:09;3.75;;;1.92;;
69386;SDS011;56575;48.942;8.404;2023-04-24T05:38:35;3.93;;;1.70;;
69386;SDS011;56575;48.942;8.404;2023-04-24T05:41:00;4.20;;;1.70;;
69386;SDS011;56575;48.942;8.404;2023-04-24T05:43:25;4.70;;;2.10;;
69386;SDS011;56575;48.942;8.404;2023-04-24T05:45:51;3.33;;;1.63;;
69386;SDS011;56575;48.942;8.404;2023-04-24T05:48:18;3.75;;;1.52;;
69386;SDS011;56575;48.942;8.404;2023-04-24T05:50:44;3.47;;;2.00;;
69386;SDS011;56575;48.942;8.404;2023-04-24T05:53:09;3.22;;;1.60;;
69386;SDS011;56575;48.942;8.404;2023-04-24T05:55:35;4.60;;;1.73;;
69386;SDS011;56575;48.942;8.404;2023-04-24T05:58:01;3.05;;;1.60;;
69386;SDS011;56575;48.942;8.404;2023-04-24T06:00:26;5.10;;;1.80;;
69386;SDS011;56575;48.942;8.404;2023-04-24T06:02:53;2.92;;;1.63;;
69386;SDS011;56575;48.942;8.404;2023-04-24T06:05:19;3.65;;;1.50;;
69386;SDS011;56575;48.942;8.404;2023-04-24T06:07:44;3.03;;;1.50;;
69386;SDS011;56575;48.942;8.404;2023-04-24T06:10:10;3.53;;;1.85;;
69386;SDS011;56575;48.942;8.404;2023-04-24T06:12:36;4.43;;;1.73;;
69386;SDS011;56575;48.942;8.404;2023-04-24T06:15:02;3.58;;;1.65;;
69386;SDS011;56575;48.942;8.404;2023-04-24T06:17:28;2.80;;;1.58;;
69386;SDS011;56575;48.942;8.404;2023-04-24T06:19:53;3.23;;;1.70;;
69386;SDS011;56575;48.942;8.404;2023-04-24T06:22:19;3.13;;;1.70;;
69386;SDS011;56575;48.942;8.404;2023-04-24T06:24:44;4.27;;;2.00;;
69386;SDS011;56575;48.942;8.404;2023-04-24T06:27:10;4.80;;;2.00;;
69386;SDS011;56575;48.942;8.404;2023-04-24T06:29:35;3.22;;;1.80;;
69386;SDS011;56575;48.942;8.404;2023-04-24T06:32:01;3.40;;;1.93;;
69386;SDS011;56575;48.942;8.404;2023-04-24T06:34:27;4.18;;;2.00;;
69386;SDS011;56575;48.942;8.404;2023-04-24T06:36:52;3.53;;;1.70;;
69386;SDS011;56575;48.942;8.404;2023-04-24T06:39:19;3.35;;;1.67;;
69386;SDS011;56575;48.942;8.404;2023-04-24T06:41:45;3.63;;;1.70;;
69386;SDS011;56575;48.942;8.404;2023-04-24T06:44:10;5.13;;;1.60;;
69386;SDS011;56575;48.942;8.404;2023-04-24T06:46:37;4.00;;;1.60;;
69386;SDS011;56575;48.942;8.404;2023-04-24T06:49:02;2.50;;;1.40;;
69386;SDS011;56575;48.942;8.404;2023-04-24T06:51:28;4.70;;;2.10;;
69386;SDS011;56575;48.942;8.404;2023-04-24T06:53:54;3.70;;;1.57;;
69386;SDS011;56575;48.942;8.404;2023-04-24T06:56:23;4.35;;;1.65;;
69386;SDS011;56575;48.942;8.404;2023-04-24T06:58:48;4.33;;;1.60;;
69386;SDS011;56575;48.942;8.404;2023-04-24T07:01:13;2.67;;;1.70;;
69386;SDS011;56575;48.942;8.404;2023-04-24T07:03:39;4.93;;;1.70;;
69386;SDS011;56575;48.942;8.404;2023-04-24T07:06:05;3.50;;;1.63;;
69386;SDS011;56575;48.942;8.404;2023-04-24T07:08:31;3.60;;;1.70;;
69386;SDS011;56575;48.942;8.404;2023-04-24T07:10:58;6.43;;;2.00;;
69386;SDS011;56575;48.942;8.404;2023-04-24T07:13:23;3.70;;;1.70;;
69386;SDS011;56575;48.942;8.404;2023-04-24T07:15:49;3.00;;;1.60;;
69386;SDS011;56575;48.942;8.404;2023-04-24T07:18:16;2.88;;;1.73;;
69386;SDS011;56575;48.942;8.404;2023-04-24T07:20:41;3.80;;;1.33;;
69386;SDS011;56575;48.942;8.404;2023-04-24T07:23:07;3.63;;;1.50;;
69386;SDS011;56575;48.942;8.404;2023-04-24T07:25:32;3.33;;;1.50;;
69386;SDS011;56575;48.942;8.404;2023-04-24T07:27:58;5.03;;;1.73;;
69386;SDS011;56575;48.942;8.404;2023-04-24T07:30:24;3.13;;;1.60;;
69386;SDS011;56575;48.942;8.404;2023-04-24T07:32:50;2.10;;;1.40;;
69386;SDS011;56575;48.942;8.404;2023-04-24T07:35:15;2.73;;;1.50;;
69386;SDS011;56575;48.942;8.404;2023-04-24T07:37:41;2.97;;;1.33;;
69386;SDS011;56575;48.942;8.404;2023-04-24T07:40:10;8.63;;;1.53;;
69386;SDS011;56575;48.942;8.404;2023-04-24T07:42:37;2.78;;;1.10;;
69386;SDS011;56575;48.942;8.404;2023-04-24T07:45:03;4.10;;;1.30;;
69386;SDS011;56575;48.942;8.404;2023-04-24T07:47:29;2.20;;;1.08;;
69386;SDS011;56575;48.942;8.404;2023-04-24T07:49:56;3.67;;;1.25;;
69386;SDS011;56575;48.942;8.404;2023-04-24T07:52:21;3.30;;;0.93;;
69386;SDS011;56575;48.942;8.404;2023-04-24T07:54:46;3.80;;;1.40;;
69386;SDS011;56575;48.942;8.404;2023-04-24T07:57:14;3.65;;;1.10;;
69386;SDS011;56575;48.942;8.404;2023-04-24T07:59:40;4.20;;;1.33;;
69386;SDS011;56575;48.942;8.404;2023-04-24T08:02:05;3.60;;;1.30;;
69386;SDS011;56575;48.942;8.404;2023-04-24T08:04:31;3.50;;;0.97;;
69386;SDS011;56575;48.942;8.404;2023-04-24T08:06:56;1.60;;;1.00;;
69386;SDS011;56575;48.942;8.404;2023-04-24T08:09:22;2.67;;;1.37;;
69386;SDS011;56575;48.942;8.404;2023-04-24T08:11:48;4.50;;;1.40;;
69386;SDS011;56575;48.942;8.404;2023-04-24T08:14:13;4.75;;;1.20;;
69386;SDS011;56575;48.942;8.404;2023-04-24T08:16:40;2.77;;;1.00;;
69386;SDS011;56575;48.942;8.404;2023-04-24T08:19:05;3.53;;;1.30;;
69386;SDS011;56575;48.942;8.404;2023-04-24T08:21:31;3.93;;;1.30;;
69386;SDS011;56575;48.942;8.404;2023-04-24T08:23:56;2.60;;;1.40;;
69386;SDS011;56575;48.942;8.404;2023-04-24T08:26:22;3.00;;;1.47;;
69386;SDS011;56575;48.942;8.404;2023-04-24T08:28:47;6.23;;;1.90;;
69386;SDS011;56575;48.942;8.404;2023-04-24T08:31:13;3.65;;;1.27;;
69386;SDS011;56575;48.942;8.404;2023-04-24T08:33:38;3.73;;;1.57;;
69386;SDS011;56575;48.942;8.404;2023-04-24T08:36:06;4.10;;;1.58;;
69386;SDS011;56575;48.942;8.404;2023-04-24T08:38:34;1.95;;;1.20;;
69386;SDS011;56575;48.942;8.404;2023-04-24T08:41:00;2.33;;;1.30;;
69386;SDS011;56575;48.942;8.404;2023-04-24T08:43:26;2.38;;;1.10;;
69386;SDS011;56575;48.942;8.404;2023-04-24T08:45:52;2.08;;;1.23;;
69386;SDS011;56575;48.942;8.404;2023-04-24T08:48:20;2.53;;;1.10;;
69386;SDS011;56575;48.942;8.404;2023-04-24T08:50:46;3.25;;;1.23;;
69386;SDS011;56575;48.942;8.404;2023-04-24T08:53:13;2.30;;;1.23;;
69386;SDS011;56575;48.942;8.404;2023-04-24T08:55:39;2.83;;;1.30;;
69386;SDS011;56575;48.942;8.404;2023-04-24T08:58:06;2.53;;;1.25;;
69386;SDS011;56575;48.942;8.404;2023-04-24T09:00:31;3.63;;;1.00;;
69386;SDS011;56575;48.942;8.404;2023-04-24T09:02:57;3.03;;;1.27;;
69386;SDS011;56575;48.942;8.404;2023-04-24T09:05:25;2.25;;;0.98;;
69386;SDS011;56575;48.942;8.404;2023-04-24T09:07:53;2.35;;;1.10;;
69386;SDS011;56575;48.942;8.404;2023-04-24T09:10:21;3.27;;;1.30;;
69386;SDS011;56575;48.942;8.404;2023-04-24T09:12:47;3.15;;;1.10;;
69386;SDS011;56575;48.942;8.404;2023-04-24T09:15:12;1.88;;;1.02;;
69386;SDS011;56575;48.942;8.404;2023-04-24T09:17:38;4.53;;;1.50;;
69386;SDS011;56575;48.942;8.404;2023-04-24T09:20:04;3.80;;;1.60;;
69386;SDS011;56575;48.942;8.404;2023-04-24T09:22:30;2.03;;;1.30;;
69386;SDS011;56575;48.942;8.404;2023-04-24T09:25:08;2.57;;;1.30;;
69386;SDS011;56575;48.942;8.404;2023-04-24T09:27:36;2.53;;;1.20;;
69386;SDS011;56575;48.942;8.404;2023-04-24T09:30:08;2.83;;;1.40;;
69386;SDS011;56575;48.942;8.404;2023-04-24T09:32:34;3.70;;;1.63;;
69386;SDS011;56575;48.942;8.404;2023-04-24T09:35:06;3.08;;;1.35;;
69386;SDS011;56575;48.942;8.404;2023-04-24T09:37:46;4.47;;;1.60;;
69386;SDS011;56575;48.942;8.404;2023-04-24T09:40:17;3.35;;;1.60;;
69386;SDS011;56575;48.942;8.404;2023-04-24T09:43:05;4.35;;;1.45;;
69386;SDS011;56575;48.942;8.404;2023-04-24T09:45:35;4.93;;;1.80;;
69386;SDS011;56575;48.942;8.404;2023-04-24T09:48:04;3.28;;;1.70;;
69386;SDS011;56575;48.942;8.404;2023-04-24T09:50:31;3.13;;;1.67;;
69386;SDS011;56575;48.942;8.404;2023-04-24T09:53:06;2.72;;;1.55;;
69386;SDS011;56575;48.942;8.404;2023-04-24T09:55:33;3.85;;;1.42;;
69386;SDS011;56575;48.942;8.404;2023-04-24T09:58:04;2.33;;;1.50;;
69386;SDS011;56575;48.942;8.404;2023-04-24T10:00:33;2.83;;;1.60;;
69386;SDS011;56575;48.942;8.404;2023-04-24T10:03:02;2.97;;;1.55;;
69386;SDS011;56575;48.942;8.404;2023-04-24T10:05:30;3.30;;;1.60;;
69386;SDS011;56575;48.942;8.404;2023-04-24T10:08:06;2.60;;;1.50;;
69386;SDS011;56575;48.942;8.404;2023-04-24T10:10:35;4.35;;;1.45;;
69386;SDS011;56575;48.942;8.404;2023-04-24T10:13:03;3.72;;;1.67;;
69386;SDS011;56575;48.942;8.404;2023-04-24T10:15:29;2.55;;;1.60;;
69386;SDS011;56575;48.942;8.404;2023-04-24T10:17:58;3.43;;;1.20;;
69386;SDS011;56575;48.942;8.404;2023-04-24T10:20:26;3.45;;;1.75;;
69386;SDS011;56575;48.942;8.404;2023-04-24T10:22:55;3.22;;;1.80;;
69386;SDS011;56575;48.942;8.404;2023-04-24T10:25:22;3.15;;;2.15;;
69386;SDS011;56575;48.942;8.404;2023-04-24T10:27:49;7.28;;;1.92;;
69386;SDS011;56575;48.942;8.404;2023-04-24T10:30:16;3.77;;;1.73;;
69386;SDS011;56575;48.942;8.404;2023-04-24T10:32:43;3.40;;;1.83;;
69386;SDS011;56575;48.942;8.404;2023-04-24T10:35:10;3.13;;;1.95;;
69386;SDS011;56575;48.942;8.404;2023-04-24T10:37:39;3.40;;;1.80;;
69386;SDS011;56575;48.942;8.404;2023-04-24T10:40:07;3.13;;;2.03;;
69386;SDS011;56575;48.942;8.404;2023-04-24T10:42:34;3.17;;;1.90;;
69386;SDS011;56575;48.942;8.404;2023-04-24T10:45:04;2.80;;;1.70;;
69386;SDS011;56575;48.942;8.404;2023-04-24T10:47:39;5.75;;;2.00;;
69386;SDS011;56575;48.942;8.404;2023-04-24T10:50:10;4.53;;;1.90;;
69386;SDS011;56575;48.942;8.404;2023-04-24T10:52:45;4.28;;;1.70;;
69386;SDS011;56575;48.942;8.404;2023-04-24T10:55:15;2.63;;;1.40;;
69386;SDS011;56575;48.942;8.404;2023-04-24T10:57:42;3.92;;;1.73;;
69386;SDS011;56575;48.942;8.404;2023-04-24T11:00:26;2.85;;;1.45;;
69386;SDS011;56575;48.942;8.404;2023-04-24T11:02:52;2.28;;;1.50;;
69386;SDS011;56575;48.942;8.404;2023-04-24T11:05:19;3.45;;;1.60;;
69386;SDS011;56575;48.942;8.404;2023-04-24T11:10:43;3.30;;;1.77;;
69386;SDS011;56575;48.942;8.404;2023-04-24T11:13:27;4.05;;;1.73;;
69386;SDS011;56575;48.942;8.404;2023-04-24T11:16:14;3.45;;;1.92;;
69386;SDS011;56575;48.942;8.404;2023-04-24T11:21:31;2.80;;;1.90;;
69386;SDS011;56575;48.942;8.404;2023-04-24T11:24:23;3.70;;;2.17;;
69386;SDS011;56575;48.942;8.404;2023-04-24T11:26:50;4.30;;;2.35;;
69386;SDS011;56575;48.942;8.404;2023-04-24T11:29:22;3.13;;;2.00;;
69386;SDS011;56575;48.942;8.404;2023-04-24T11:31:47;5.13;;;2.30;;
69386;SDS011;56575;48.942;8.404;2023-04-24T11:34:15;4.47;;;2.30;;
69386;SDS011;56575;48.942;8.404;2023-04-24T11:36:45;4.55;;;2.03;;
69386;SDS011;56575;48.942;8.404;2023-04-24T11:39:12;3.33;;;2.00;;
69386;SDS011;56575;48.942;8.404;2023-04-24T11:41:38;3.70;;;2.05;;
69386;SDS011;56575;48.942;8.404;2023-04-24T11:44:05;4.27;;;2.10;;
69386;SDS011;56575;48.942;8.404;2023-04-24T11:46:32;3.83;;;2.20;;
69386;SDS011;56575;48.942;8.404;2023-04-24T11:48:58;4.63;;;2.17;;
69386;SDS011;56575;48.942;8.404;2023-04-24T11:51:25;4.10;;;2.28;;
69386;SDS011;56575;48.942;8.404;2023-04-24T11:53:52;4.88;;;2.50;;
69386;SDS011;56575;48.942;8.404;2023-04-24T11:56:19;5.23;;;2.33;;
69386;SDS011;56575;48.942;8.404;2023-04-24T11:58:46;8.18;;;3.10;;
69386;SDS011;56575;48.942;8.404;2023-04-24T12:01:12;6.00;;;2.60;;
69386;SDS011;56575;48.942;8.404;2023-04-24T12:03:37;4.67;;;2.50;;
69386;SDS011;56575;48.942;8.404;2023-04-24T12:06:06;6.80;;;3.13;;
69386;SDS011;56575;48.942;8.404;2023-04-24T12:08:33;5.18;;;2.97;;
69386;SDS011;56575;48.942;8.404;2023-04-24T12:10:59;6.47;;;3.40;;
69386;SDS011;56575;48.942;8.404;2023-04-24T12:13:26;8.45;;;3.63;;
69386;SDS011;56575;48.942;8.404;2023-04-24T12:15:51;6.80;;;3.87;;
69386;SDS011;56575;48.942;8.404;2023-04-24T12:18:17;4.97;;;3.00;;
69386;SDS011;56575;48.942;8.404;2023-04-24T12:20:43;5.43;;;3.40;;
69386;SDS011;56575;48.942;8.404;2023-04-24T12:23:08;4.40;;;2.70;;
69386;SDS011;56575;48.942;8.404;2023-04-24T12:25:35;5.20;;;2.65;;
69386;SDS011;56575;48.942;8.404;2023-04-24T12:30:29;4.43;;;2.47;;
69386;SDS011;56575;48.942;8.404;2023-04-24T12:32:57;6.30;;;2.70;;
69386;SDS011;56575;48.942;8.404;2023-04-24T12:35:24;5.57;;;2.88;;
69386;SDS011;56575;48.942;8.404;2023-04-24T12:37:51;4.43;;;2.90;;
69386;SDS011;56575;48.942;8.404;2023-04-24T12:40:17;5.03;;;2.60;;
69386;SDS011;56575;48.942;8.404;2023-04-24T12:42:44;3.85;;;2.50;;
69386;SDS011;56575;48.942;8.404;2023-04-24T12:45:10;5.18;;;2.75;;
69386;SDS011;56575;48.942;8.404;2023-04-24T12:47:40;3.60;;;2.60;;
69386;SDS011;56575;48.942;8.404;2023-04-24T12:50:10;4.18;;;2.80;;
69386;SDS011;56575;48.942;8.404;2023-04-24T12:52:37;3.77;;;2.40;;
69386;SDS011;56575;48.942;8.404;2023-04-24T12:55:03;4.13;;;2.70;;
69386;SDS011;56575;48.942;8.404;2023-04-24T12:57:30;3.33;;;2.75;;
69386;SDS011;56575;48.942;8.404;2023-04-24T12:59:56;3.38;;;2.38;;
69386;SDS011;56575;48.942;8.404;2023-04-24T13:02:22;6.43;;;2.40;;
69386;SDS011;56575;48.942;8.404;2023-04-24T13:04:48;4.47;;;2.28;;
69386;SDS011;56575;48.942;8.404;2023-04-24T13:07:14;4.72;;;2.47;;
69386;SDS011;56575;48.942;8.404;2023-04-24T13:09:40;5.13;;;2.67;;
69386;SDS011;56575;48.942;8.404;2023-04-24T13:12:07;4.17;;;2.70;;
69386;SDS011;56575;48.942;8.404;2023-04-24T13:14:33;5.32;;;3.03;;
69386;SDS011;56575;48.942;8.404;2023-04-24T13:16:58;4.90;;;2.60;;
69386;SDS011;56575;48.942;8.404;2023-04-24T13:19:24;5.17;;;2.97;;
69386;SDS011;56575;48.942;8.404;2023-04-24T13:21:51;4.35;;;2.45;;
69386;SDS011;56575;48.942;8.404;2023-04-24T13:24:18;5.38;;;2.70;;
69386;SDS011;56575;48.942;8.404;2023-04-24T13:26:43;5.00;;;2.97;;
69386;SDS011;56575;48.942;8.404;2023-04-24T13:29:09;4.60;;;2.70;;
69386;SDS011;56575;48.942;8.404;2023-04-24T13:31:34;4.65;;;2.85;;
69386;SDS011;56575;48.942;8.404;2023-04-24T13:34:01;4.57;;;2.80;;
69386;SDS011;56575;48.942;8.404;2023-04-24T13:36:27;5.07;;;3.38;;
69386;SDS011;56575;48.942;8.404;2023-04-24T13:38:52;6.30;;;2.73;;
69386;SDS011;56575;48.942;8.404;2023-04-24T13:41:18;4.80;;;2.67;;
69386;SDS011;56575;48.942;8.404;2023-04-24T13:43:43;4.40;;;2.63;;
69386;SDS011;56575;48.942;8.404;2023-04-24T13:46:09;3.72;;;2.20;;
69386;SDS011;56575;48.942;8.404;2023-04-24T13:48:34;3.57;;;2.60;;
69386;SDS011;56575;48.942;8.404;2023-04-24T13:51:00;3.00;;;2.07;;
69386;SDS011;56575;48.942;8.404;2023-04-24T13:53:25;3.67;;;2.20;;
69386;SDS011;56575;48.942;8.404;2023-04-24T13:55:50;2.70;;;1.80;;
69386;SDS011;56575;48.942;8.404;2023-04-24T13:58:16;3.90;;;1.90;;
69386;SDS011;56575;48.942;8.404;2023-04-24T14:00:41;3.20;;;1.80;;
69386;SDS011;56575;48.942;8.404;2023-04-24T14:03:07;3.67;;;1.80;;
69386;SDS011;56575;48.942;8.404;2023-04-24T14:05:32;3.40;;;1.83;;
69386;SDS011;56575;48.942;8.404;2023-04-24T14:07:57;4.07;;;1.83;;
69386;SDS011;56575;48.942;8.404;2023-04-24T14:10:23;3.63;;;2.30;;
69386;SDS011;56575;48.942;8.404;2023-04-24T14:12:48;2.60;;;1.77;;
69386;SDS011;56575;48.942;8.404;2023-04-24T14:15:14;4.60;;;2.25;;
69386;SDS011;56575;48.942;8.404;2023-04-24T14:17:39;4.00;;;2.13;;
69386;SDS011;56575;48.942;8.404;2023-04-24T14:20:05;4.33;;;2.07;;
69386;SDS011;56575;48.942;8.404;2023-04-24T14:22:31;4.10;;;2.00;;
69386;SDS011;56575;48.942;8.404;2023-04-24T14:24:57;3.22;;;2.00;;
69386;SDS011;56575;48.942;8.404;2023-04-24T14:27:23;3.20;;;2.10;;
69386;SDS011;56575;48.942;8.404;2023-04-24T14:29:49;3.75;;;2.50;;
69386;SDS011;56575;48.942;8.404;2023-04-24T14:32:15;3.97;;;1.97;;
69386;SDS011;56575;48.942;8.404;2023-04-24T14:34:40;2.13;;;1.50;;
69386;SDS011;56575;48.942;8.404;2023-04-24T14:37:06;2.97;;;1.48;;
69386;SDS011;56575;48.942;8.404;2023-04-24T14:39:32;4.03;;;1.50;;
69386;SDS011;56575;48.942;8.404;2023-04-24T14:41:57;3.90;;;1.57;;
69386;SDS011;56575;48.942;8.404;2023-04-24T14:44:22;2.67;;;1.40;;
69386;SDS011;56575;48.942;8.404;2023-04-24T14:46:48;2.53;;;1.37;;
69386;SDS011;56575;48.942;8.404;2023-04-24T14:49:14;4.25;;;1.50;;
69386;SDS011;56575;48.942;8.404;2023-04-24T14:51:40;2.43;;;1.43;;